sensor_id;sensor_type;location;lat;lon;timestamp;pressure;altitude;pressure_sealevel;temperature;humidity
63395;BME280;49531;-34.520;150.798;2023-12-20T00:02:19;100701.84;;;22.51;61.08
63395;BME280;49531;-34.520;150.798;2023-12-20T00:04:46;100695.91;;;22.39;61.28
63395;BME280;49531;-34.520;150.798;2023-12-20T00:07:14;100702.69;;;22.37;61.14
63395;BME280;49531;-34.520;150.798;2023-12-20T00:09:41;100693.19;;;22.34;61.26
63395;BME280;49531;-34.520;150.798;2023-12-20T00:12:09;100696.69;;;22.40;60.91
63395;BME280;49531;-34.520;150.798;2023-12-20T00:14:36;100691.25;;;22.50;60.24
63395;BME280;49531;-34.520;150.798;2023-12-20T00:17:03;100692.03;;;22.60;60.31
63395;BME280;49531;-34.520;150.798;2023-12-20T00:19:30;100686.06;;;22.63;60.07
63395;BME280;49531;-34.520;150.798;2023-12-20T00:21:58;100694.22;;;22.69;59.69
63395;BME280;49531;-34.520;150.798;2023-12-20T00:24:25;100694.22;;;22.69;59.72
63395;BME280;49531;-34.520;150.798;2023-12-20T00:26:53;100686.59;;;22.71;59.55
63395;BME280;49531;-34.520;150.798;2023-12-20T00:29:20;100688.50;;;22.70;59.77
63395;BME280;49531;-34.520;150.798;2023-12-20T00:31:47;100679.50;;;22.70;59.53
63395;BME280;49531;-34.520;150.798;2023-12-20T00:34:14;100682.78;;;22.72;59.52
63395;BME280;49531;-34.520;150.798;2023-12-20T00:36:41;100682.50;;;22.73;59.44
63395;BME280;49531;-34.520;150.798;2023-12-20T00:39:08;100675.97;;;22.69;59.75
63395;BME280;49531;-34.520;150.798;2023-12-20T00:41:35;100674.88;;;22.65;59.85
63395;BME280;49531;-34.520;150.798;2023-12-20T00:44:02;100673.78;;;22.66;59.59
63395;BME280;49531;-34.520;150.798;2023-12-20T00:46:29;100667.00;;;22.69;59.53
63395;BME280;49531;-34.520;150.798;2023-12-20T00:48:56;100669.97;;;22.67;59.76
63395;BME280;49531;-34.520;150.798;2023-12-20T00:51:23;100664.00;;;22.70;59.68
63395;BME280;49531;-34.520;150.798;2023-12-20T00:53:50;100666.97;;;22.74;59.48
63395;BME280;49531;-34.520;150.798;2023-12-20T00:56:21;100657.44;;;22.76;59.34
63395;BME280;49531;-34.520;150.798;2023-12-20T00:58:48;100666.41;;;22.82;59.36
63395;BME280;49531;-34.520;150.798;2023-12-20T01:01:15;100669.72;;;22.79;59.25
63395;BME280;49531;-34.520;150.798;2023-12-20T01:03:43;100654.16;;;22.84;59.07
63395;BME280;49531;-34.520;150.798;2023-12-20T01:06:10;100658.00;;;22.78;59.44
63395;BME280;49531;-34.520;150.798;2023-12-20T01:08:37;100662.06;;;22.76;59.37
63395;BME280;49531;-34.520;150.798;2023-12-20T01:11:05;100661.50;;;22.89;59.03
63395;BME280;49531;-34.520;150.798;2023-12-20T01:13:32;100661.22;;;22.85;59.24
63395;BME280;49531;-34.520;150.798;2023-12-20T01:15:59;100660.41;;;22.85;59.25
63395;BME280;49531;-34.520;150.798;2023-12-20T01:18:26;100670.50;;;22.84;59.11
63395;BME280;49531;-34.520;150.798;2023-12-20T01:20:54;100671.88;;;22.77;59.48
63395;BME280;49531;-34.520;150.798;2023-12-20T01:23:21;100658.22;;;22.87;58.95
63395;BME280;49531;-34.520;150.798;2023-12-20T01:25:48;100662.59;;;22.83;59.28
63395;BME280;49531;-34.520;150.798;2023-12-20T01:28:16;100659.03;;;22.87;59.02
63395;BME280;49531;-34.520;150.798;2023-12-20T01:30:43;100662.03;;;22.86;58.98
63395;BME280;49531;-34.520;150.798;2023-12-20T01:33:10;100658.75;;;22.94;59.01
63395;BME280;49531;-34.520;150.798;2023-12-20T01:35:37;100659.84;;;22.93;58.96
63395;BME280;49531;-34.520;150.798;2023-12-20T01:38:04;100656.00;;;22.99;58.78
63395;BME280;49531;-34.520;150.798;2023-12-20T01:40:32;100657.66;;;23.00;58.52
63395;BME280;49531;-34.520;150.798;2023-12-20T01:43:00;100644.31;;;22.99;58.62
63395;BME280;49531;-34.520;150.798;2023-12-20T01:45:27;100651.69;;;22.93;58.73
63395;BME280;49531;-34.520;150.798;2023-12-20T01:47:57;100654.41;;;22.93;58.65
63395;BME280;49531;-34.520;150.798;2023-12-20T01:50:24;100664.19;;;22.94;58.90
63395;BME280;49531;-34.520;150.798;2023-12-20T01:52:52;100656.03;;;22.89;59.15
63395;BME280;49531;-34.520;150.798;2023-12-20T01:55:23;100665.56;;;22.97;58.86
63395;BME280;49531;-34.520;150.798;2023-12-20T01:57:50;100656.84;;;23.00;58.82
63395;BME280;49531;-34.520;150.798;2023-12-20T02:00:18;100658.72;;;23.04;58.59
63395;BME280;49531;-34.520;150.798;2023-12-20T02:02:50;100657.34;;;23.07;58.40
63395;BME280;49531;-34.520;150.798;2023-12-20T02:05:19;100653.00;;;23.01;58.74
63395;BME280;49531;-34.520;150.798;2023-12-20T02:07:47;100640.47;;;23.00;58.87
63395;BME280;49531;-34.520;150.798;2023-12-20T02:10:14;100642.94;;;23.01;58.77
63395;BME280;49531;-34.520;150.798;2023-12-20T02:12:42;100634.78;;;22.96;58.67
63395;BME280;49531;-34.520;150.798;2023-12-20T02:15:09;100632.06;;;22.96;58.81
63395;BME280;49531;-34.520;150.798;2023-12-20T02:17:37;100634.22;;;22.99;58.90
63395;BME280;49531;-34.520;150.798;2023-12-20T02:20:06;100630.97;;;22.92;59.00
63395;BME280;49531;-34.520;150.798;2023-12-20T02:22:33;100635.88;;;22.90;59.05
63395;BME280;49531;-34.520;150.798;2023-12-20T02:25:00;100633.19;;;22.85;59.37
63395;BME280;49531;-34.520;150.798;2023-12-20T02:27:28;100644.88;;;22.85;59.36
63395;BME280;49531;-34.520;150.798;2023-12-20T02:29:56;100641.06;;;22.86;59.06
63395;BME280;49531;-34.520;150.798;2023-12-20T02:32:24;100640.75;;;22.98;59.09
63395;BME280;49531;-34.520;150.798;2023-12-20T02:34:55;100634.25;;;22.94;59.24
63395;BME280;49531;-34.520;150.798;2023-12-20T02:37:22;100639.72;;;22.84;59.15
63395;BME280;49531;-34.520;150.798;2023-12-20T02:39:50;100648.19;;;22.72;60.14
63395;BME280;49531;-34.520;150.798;2023-12-20T02:42:18;100644.13;;;22.59;59.71
63395;BME280;49531;-34.520;150.798;2023-12-20T02:44:45;100642.78;;;22.47;59.21
63395;BME280;49531;-34.520;150.798;2023-12-20T02:47:12;100630.03;;;22.32;60.14
63395;BME280;49531;-34.520;150.798;2023-12-20T02:49:39;100640.66;;;22.18;60.46
63395;BME280;49531;-34.520;150.798;2023-12-20T02:52:06;100645.84;;;22.15;60.94
63395;BME280;49531;-34.520;150.798;2023-12-20T02:54:33;100635.50;;;22.12;61.45
63395;BME280;49531;-34.520;150.798;2023-12-20T02:57:00;100640.94;;;22.12;61.23
63395;BME280;49531;-34.520;150.798;2023-12-20T02:59:27;100630.06;;;22.17;60.46
63395;BME280;49531;-34.520;150.798;2023-12-20T03:01:54;100637.69;;;22.10;60.26
63395;BME280;49531;-34.520;150.798;2023-12-20T03:04:21;100636.56;;;22.01;60.17
63395;BME280;49531;-34.520;150.798;2023-12-20T03:06:49;100633.59;;;21.97;60.67
63395;BME280;49531;-34.520;150.798;2023-12-20T03:09:16;100632.19;;;22.00;60.66
63395;BME280;49531;-34.520;150.798;2023-12-20T03:11:43;100634.13;;;22.09;60.50
63395;BME280;49531;-34.520;150.798;2023-12-20T03:14:10;100623.81;;;22.11;60.42
63395;BME280;49531;-34.520;150.798;2023-12-20T03:16:37;100627.34;;;22.12;60.31
63395;BME280;49531;-34.520;150.798;2023-12-20T03:19:04;100624.06;;;22.15;60.29
63395;BME280;49531;-34.520;150.798;2023-12-20T03:21:31;100624.63;;;22.22;60.11
63395;BME280;49531;-34.520;150.798;2023-12-20T03:23:58;100614.53;;;22.22;59.84
63395;BME280;49531;-34.520;150.798;2023-12-20T03:26:25;100623.53;;;22.28;59.88
63395;BME280;49531;-34.520;150.798;2023-12-20T03:28:52;100623.53;;;22.28;59.69
63395;BME280;49531;-34.520;150.798;2023-12-20T03:31:19;100624.88;;;22.25;59.95
63395;BME280;49531;-34.520;150.798;2023-12-20T03:33:47;100621.06;;;22.26;59.82
63395;BME280;49531;-34.520;150.798;2023-12-20T03:36:14;100620.25;;;22.26;59.88
63395;BME280;49531;-34.520;150.798;2023-12-20T03:38:41;100613.47;;;22.23;59.87
63395;BME280;49531;-34.520;150.798;2023-12-20T03:41:08;100607.19;;;22.28;59.74
63395;BME280;49531;-34.520;150.798;2023-12-20T03:43:36;100612.63;;;22.33;59.95
63395;BME280;49531;-34.520;150.798;2023-12-20T03:46:03;100603.91;;;22.36;59.31
63395;BME280;49531;-34.520;150.798;2023-12-20T03:48:33;100604.72;;;22.37;59.54
63395;BME280;49531;-34.520;150.798;2023-12-20T03:51:00;100605.81;;;22.36;59.49
63395;BME280;49531;-34.520;150.798;2023-12-20T03:53:27;100598.44;;;22.41;59.46
63395;BME280;49531;-34.520;150.798;2023-12-20T03:55:54;100598.97;;;22.48;59.33
63395;BME280;49531;-34.520;150.798;2023-12-20T03:58:22;100599.25;;;22.42;59.29
63395;BME280;49531;-34.520;150.798;2023-12-20T04:00:49;100603.38;;;22.39;59.32
63395;BME280;49531;-34.520;150.798;2023-12-20T04:03:16;100603.59;;;22.43;59.33
63395;BME280;49531;-34.520;150.798;2023-12-20T04:05:43;100601.16;;;22.46;59.02
63395;BME280;49531;-34.520;150.798;2023-12-20T04:08:10;100615.56;;;22.47;59.30
63395;BME280;49531;-34.520;150.798;2023-12-20T04:10:37;100608.22;;;22.42;59.22
63395;BME280;49531;-34.520;150.798;2023-12-20T04:13:05;100605.50;;;22.52;59.04
63395;BME280;49531;-34.520;150.798;2023-12-20T04:15:32;100607.66;;;22.55;58.99
63395;BME280;49531;-34.520;150.798;2023-12-20T04:17:59;100611.19;;;22.61;58.81
63395;BME280;49531;-34.520;150.798;2023-12-20T04:20:26;100598.13;;;22.58;58.70
63395;BME280;49531;-34.520;150.798;2023-12-20T04:22:53;100611.19;;;22.61;58.46
63395;BME280;49531;-34.520;150.798;2023-12-20T04:25:20;100611.44;;;22.65;58.63
63395;BME280;49531;-34.520;150.798;2023-12-20T04:27:48;100610.38;;;22.60;58.62
63395;BME280;49531;-34.520;150.798;2023-12-20T04:30:15;100615.81;;;22.55;58.67
63395;BME280;49531;-34.520;150.798;2023-12-20T04:32:42;100615.28;;;22.58;58.59
63395;BME280;49531;-34.520;150.798;2023-12-20T04:35:09;100607.13;;;22.58;58.54
63395;BME280;49531;-34.520;150.798;2023-12-20T04:37:36;100612.84;;;22.57;58.74
63395;BME280;49531;-34.520;150.798;2023-12-20T04:40:03;100612.56;;;22.53;58.67
63395;BME280;49531;-34.520;150.798;2023-12-20T04:42:31;100608.22;;;22.52;58.74
63395;BME280;49531;-34.520;150.798;2023-12-20T04:44:58;100612.31;;;22.45;59.08
63395;BME280;49531;-34.520;150.798;2023-12-20T04:47:25;100614.75;;;22.46;58.75
63395;BME280;49531;-34.520;150.798;2023-12-20T04:49:53;100620.19;;;22.51;58.54
63395;BME280;49531;-34.520;150.798;2023-12-20T04:52:20;100619.38;;;22.51;58.56
63395;BME280;49531;-34.520;150.798;2023-12-20T04:54:47;100619.91;;;22.53;58.38
63395;BME280;49531;-34.520;150.798;2023-12-20T04:57:14;100617.19;;;22.58;57.96
63395;BME280;49531;-34.520;150.798;2023-12-20T04:59:41;100622.38;;;22.54;58.31
63395;BME280;49531;-34.520;150.798;2023-12-20T05:02:08;100628.63;;;22.55;57.96
63395;BME280;49531;-34.520;150.798;2023-12-20T05:04:35;100609.31;;;22.51;58.21
63395;BME280;49531;-34.520;150.798;2023-12-20T05:07:02;100612.56;;;22.48;58.12
63395;BME280;49531;-34.520;150.798;2023-12-20T05:09:31;100600.31;;;22.51;58.17
63395;BME280;49531;-34.520;150.798;2023-12-20T05:11:58;100605.75;;;22.51;57.90
63395;BME280;49531;-34.520;150.798;2023-12-20T05:14:25;100610.66;;;22.54;58.09
63395;BME280;49531;-34.520;150.798;2023-12-20T05:16:52;100615.28;;;22.53;57.93
63395;BME280;49531;-34.520;150.798;2023-12-20T05:19:19;100610.13;;;22.52;57.91
63395;BME280;49531;-34.520;150.798;2023-12-20T05:21:46;100606.59;;;22.51;57.91
63395;BME280;49531;-34.520;150.798;2023-12-20T05:24:13;100606.31;;;22.48;57.98
63395;BME280;49531;-34.520;150.798;2023-12-20T05:26:40;100609.31;;;22.51;57.97
63395;BME280;49531;-34.520;150.798;2023-12-20T05:29:08;100603.03;;;22.51;57.94
63395;BME280;49531;-34.520;150.798;2023-12-20T05:31:35;100601.44;;;22.45;57.91
63395;BME280;49531;-34.520;150.798;2023-12-20T05:34:02;100593.81;;;22.47;57.06
63395;BME280;49531;-34.520;150.798;2023-12-20T05:36:29;100598.47;;;22.31;57.04
63395;BME280;49531;-34.520;150.798;2023-12-20T05:38:56;100596.31;;;22.13;57.86
63395;BME280;49531;-34.520;150.798;2023-12-20T05:41:23;100600.13;;;22.07;58.69
63395;BME280;49531;-34.520;150.798;2023-12-20T05:43:50;100589.25;;;22.07;58.69
63395;BME280;49531;-34.520;150.798;2023-12-20T05:46:17;100592.53;;;21.99;58.74
63395;BME280;49531;-34.520;150.798;2023-12-20T05:48:44;100588.44;;;22.01;59.11
63395;BME280;49531;-34.520;150.798;2023-12-20T05:51:14;100578.63;;;22.00;59.60
63395;BME280;49531;-34.520;150.798;2023-12-20T05:53:41;100564.22;;;22.05;59.67
63395;BME280;49531;-34.520;150.798;2023-12-20T05:56:08;100575.38;;;22.08;60.30
63395;BME280;49531;-34.520;150.798;2023-12-20T05:58:35;100576.47;;;22.12;60.29
63395;BME280;49531;-34.520;150.798;2023-12-20T06:01:06;100568.59;;;22.11;60.77
63395;BME280;49531;-34.520;150.798;2023-12-20T06:03:34;100561.78;;;22.13;60.79
63395;BME280;49531;-34.520;150.798;2023-12-20T06:06:07;100574.56;;;22.18;60.92
63395;BME280;49531;-34.520;150.798;2023-12-20T06:08:35;100568.56;;;22.21;60.82
63395;BME280;49531;-34.520;150.798;2023-12-20T06:11:02;100558.50;;;22.21;60.79
63395;BME280;49531;-34.520;150.798;2023-12-20T06:13:29;100568.28;;;22.27;60.58
63395;BME280;49531;-34.520;150.798;2023-12-20T06:15:57;100572.09;;;22.32;60.68
63395;BME280;49531;-34.520;150.798;2023-12-20T06:18:24;100574.53;;;22.33;60.68
63395;BME280;49531;-34.520;150.798;2023-12-20T06:20:51;100577.81;;;22.30;60.53
63395;BME280;49531;-34.520;150.798;2023-12-20T06:23:18;100574.53;;;22.28;61.16
63395;BME280;49531;-34.520;150.798;2023-12-20T06:25:45;100575.34;;;22.28;60.92
63395;BME280;49531;-34.520;150.798;2023-12-20T06:28:12;100572.09;;;22.26;60.94
63395;BME280;49531;-34.520;150.798;2023-12-20T06:30:41;100584.34;;;22.34;61.02
63395;BME280;49531;-34.520;150.798;2023-12-20T06:33:08;100584.59;;;22.38;60.60
63395;BME280;49531;-34.520;150.798;2023-12-20T06:35:37;100572.63;;;22.39;61.07
63395;BME280;49531;-34.520;150.798;2023-12-20T06:38:04;100570.72;;;22.34;61.07
63395;BME280;49531;-34.520;150.798;2023-12-20T06:40:31;100568.53;;;22.36;61.12
63395;BME280;49531;-34.520;150.798;2023-12-20T06:42:58;100562.00;;;22.37;60.73
63395;BME280;49531;-34.520;150.798;2023-12-20T06:45:26;100556.03;;;22.30;60.98
63395;BME280;49531;-34.520;150.798;2023-12-20T06:47:53;100556.84;;;22.31;61.08
63395;BME280;49531;-34.520;150.798;2023-12-20T06:50:21;100559.03;;;22.34;61.00
63395;BME280;49531;-34.520;150.798;2023-12-20T06:52:48;100574.53;;;22.28;61.39
63395;BME280;49531;-34.520;150.798;2023-12-20T06:55:15;100580.50;;;22.35;61.18
63395;BME280;49531;-34.520;150.798;2023-12-20T06:57:43;100595.72;;;22.41;61.15
63395;BME280;49531;-34.520;150.798;2023-12-20T07:00:12;100594.34;;;22.44;60.99
63395;BME280;49531;-34.520;150.798;2023-12-20T07:02:39;100588.38;;;22.42;60.82
63395;BME280;49531;-34.520;150.798;2023-12-20T07:05:06;100609.09;;;22.38;60.92
63395;BME280;49531;-34.520;150.798;2023-12-20T07:07:33;100613.44;;;22.39;60.91
63395;BME280;49531;-34.520;150.798;2023-12-20T07:10:01;100627.03;;;22.39;60.62
63395;BME280;49531;-34.520;150.798;2023-12-20T07:12:28;100620.22;;;22.41;60.53
63395;BME280;49531;-34.520;150.798;2023-12-20T07:14:55;100605.81;;;22.36;60.54
63395;BME280;49531;-34.520;150.798;2023-12-20T07:17:22;100614.25;;;22.39;60.43
63395;BME280;49531;-34.520;150.798;2023-12-20T07:19:49;100614.81;;;22.36;60.37
63395;BME280;49531;-34.520;150.798;2023-12-20T07:22:16;100631.69;;;22.38;60.23
63395;BME280;49531;-34.520;150.798;2023-12-20T07:24:43;100644.47;;;22.38;60.13
63395;BME280;49531;-34.520;150.798;2023-12-20T07:27:11;100641.75;;;22.38;59.95
63395;BME280;49531;-34.520;150.798;2023-12-20T07:29:38;100649.63;;;22.39;59.83
63395;BME280;49531;-34.520;150.798;2023-12-20T07:32:05;100650.19;;;22.36;60.00
63395;BME280;49531;-34.520;150.798;2023-12-20T07:34:32;100664.06;;;22.35;59.97
63395;BME280;49531;-34.520;150.798;2023-12-20T07:36:59;100666.78;;;22.29;59.82
63395;BME280;49531;-34.520;150.798;2023-12-20T07:39:26;100674.69;;;22.31;59.92
63395;BME280;49531;-34.520;150.798;2023-12-20T07:41:53;100677.13;;;22.27;59.86
63395;BME280;49531;-34.520;150.798;2023-12-20T07:44:20;100661.06;;;22.21;59.84
63395;BME280;49531;-34.520;150.798;2023-12-20T07:46:48;100657.53;;;22.10;60.23
63395;BME280;49531;-34.520;150.798;2023-12-20T07:49:15;100646.38;;;22.17;60.08
63395;BME280;49531;-34.520;150.798;2023-12-20T07:51:42;100651.00;;;22.21;59.82
63395;BME280;49531;-34.520;150.798;2023-12-20T07:54:09;100655.34;;;22.17;59.69
63395;BME280;49531;-34.520;150.798;2023-12-20T07:56:36;100676.31;;;22.17;59.84
63395;BME280;49531;-34.520;150.798;2023-12-20T07:59:03;100676.31;;;22.17;59.88
63395;BME280;49531;-34.520;150.798;2023-12-20T08:01:30;100674.41;;;22.12;59.81
63395;BME280;49531;-34.520;150.798;2023-12-20T08:03:57;100688.00;;;22.07;59.95
63395;BME280;49531;-34.520;150.798;2023-12-20T08:06:24;100692.63;;;22.12;59.76
63395;BME280;49531;-34.520;150.798;2023-12-20T08:08:51;100692.63;;;22.07;59.81
63395;BME280;49531;-34.520;150.798;2023-12-20T08:11:19;100683.38;;;22.03;60.05
63395;BME280;49531;-34.520;150.798;2023-12-20T08:13:46;100691.25;;;22.04;59.64
63395;BME280;49531;-34.520;150.798;2023-12-20T08:16:13;100693.16;;;22.09;59.60
63395;BME280;49531;-34.520;150.798;2023-12-20T08:18:41;100691.00;;;22.06;59.54
63395;BME280;49531;-34.520;150.798;2023-12-20T08:21:09;100684.72;;;22.05;59.53
63395;BME280;49531;-34.520;150.798;2023-12-20T08:23:36;100693.16;;;22.04;59.84
63395;BME280;49531;-34.520;150.798;2023-12-20T08:26:07;100698.88;;;22.07;59.54
63395;BME280;49531;-34.520;150.798;2023-12-20T08:28:34;100708.13;;;22.11;59.39
63395;BME280;49531;-34.520;150.798;2023-12-20T08:31:03;100712.19;;;22.09;59.59
63395;BME280;49531;-34.520;150.798;2023-12-20T08:33:31;100713.28;;;22.03;59.42
63395;BME280;49531;-34.520;150.798;2023-12-20T08:35:58;100718.97;;;21.96;59.60
63395;BME280;49531;-34.520;150.798;2023-12-20T08:38:25;100722.25;;;21.98;59.64
63395;BME280;49531;-34.520;150.798;2023-12-20T08:40:52;100714.59;;;22.00;59.52
63395;BME280;49531;-34.520;150.798;2023-12-20T08:43:19;100719.00;;;22.06;59.40
63395;BME280;49531;-34.520;150.798;2023-12-20T08:45:46;100724.16;;;22.03;59.34
63395;BME280;49531;-34.520;150.798;2023-12-20T08:48:16;100723.88;;;21.99;59.31
63395;BME280;49531;-34.520;150.798;2023-12-20T08:50:46;100739.66;;;22.02;59.29
63395;BME280;49531;-34.520;150.798;2023-12-20T08:53:15;100737.19;;;21.95;59.49
63395;BME280;49531;-34.520;150.798;2023-12-20T08:55:43;100738.56;;;21.98;59.15
63395;BME280;49531;-34.520;150.798;2023-12-20T08:58:10;100733.94;;;21.99;59.28
63395;BME280;49531;-34.520;150.798;2023-12-20T09:00:37;100743.47;;;22.01;59.01
63395;BME280;49531;-34.520;150.798;2023-12-20T09:03:08;100739.91;;;22.01;59.09
63395;BME280;49531;-34.520;150.798;2023-12-20T09:05:35;100745.38;;;21.95;59.21
63395;BME280;49531;-34.520;150.798;2023-12-20T09:08:02;100741.53;;;21.91;59.13
63395;BME280;49531;-34.520;150.798;2023-12-20T09:10:29;100751.34;;;21.92;59.17
63395;BME280;49531;-34.520;150.798;2023-12-20T09:12:56;100749.13;;;21.84;59.31
63395;BME280;49531;-34.520;150.798;2023-12-20T09:15:28;100755.69;;;21.88;59.07
63395;BME280;49531;-34.520;150.798;2023-12-20T09:17:56;100756.22;;;21.85;59.23
63395;BME280;49531;-34.520;150.798;2023-12-20T09:20:24;100743.13;;;21.77;59.41
63395;BME280;49531;-34.520;150.798;2023-12-20T09:22:51;100739.31;;;21.68;59.68
63395;BME280;49531;-34.520;150.798;2023-12-20T09:25:18;100744.47;;;21.70;59.70
63395;BME280;49531;-34.520;150.798;2023-12-20T09:27:45;100751.28;;;21.72;59.66
63395;BME280;49531;-34.520;150.798;2023-12-20T09:30:13;100742.56;;;21.70;59.49
63395;BME280;49531;-34.520;150.798;2023-12-20T09:32:40;100738.75;;;21.71;59.46
63395;BME280;49531;-34.520;150.798;2023-12-20T09:35:07;100749.38;;;21.78;59.16
63395;BME280;49531;-34.520;150.798;2023-12-20T09:37:35;100733.59;;;21.70;59.33
63395;BME280;49531;-34.520;150.798;2023-12-20T09:40:02;100743.13;;;21.72;59.30
63395;BME280;49531;-34.520;150.798;2023-12-20T09:42:56;100758.34;;;21.73;59.30
63395;BME280;49531;-34.520;150.798;2023-12-20T09:45:23;100773.84;;;21.73;59.36
63395;BME280;49531;-34.520;150.798;2023-12-20T09:47:53;100771.09;;;21.68;59.48
63395;BME280;49531;-34.520;150.798;2023-12-20T09:50:26;100764.03;;;21.67;59.53
63395;BME280;49531;-34.520;150.798;2023-12-20T09:52:54;100770.00;;;21.63;59.55
63395;BME280;49531;-34.520;150.798;2023-12-20T09:55:26;100768.91;;;21.64;59.51
63395;BME280;49531;-34.520;150.798;2023-12-20T09:57:54;100770.25;;;21.62;59.39
63395;BME280;49531;-34.520;150.798;2023-12-20T10:00:22;100770.00;;;21.63;59.32
63395;BME280;49531;-34.520;150.798;2023-12-20T10:02:58;100781.16;;;21.67;59.32
63395;BME280;49531;-34.520;150.798;2023-12-20T10:05:33;100783.59;;;21.58;59.56
63395;BME280;49531;-34.520;150.798;2023-12-20T10:08:01;100786.56;;;21.57;59.59
63395;BME280;49531;-34.520;150.798;2023-12-20T10:10:31;100784.69;;;21.57;59.63
63395;BME280;49531;-34.520;150.798;2023-12-20T10:13:06;100777.88;;;21.60;59.52
63395;BME280;49531;-34.520;150.798;2023-12-20T10:15:34;100777.34;;;21.58;59.51
63395;BME280;49531;-34.520;150.798;2023-12-20T10:18:05;100783.88;;;21.57;59.50
63395;BME280;49531;-34.520;150.798;2023-12-20T10:20:32;100775.69;;;21.62;59.30
63395;BME280;49531;-34.520;150.798;2023-12-20T10:22:59;100773.53;;;21.54;59.51
63395;BME280;49531;-34.520;150.798;2023-12-20T10:25:27;100762.88;;;21.47;59.54
63395;BME280;49531;-34.520;150.798;2023-12-20T10:28:23;100764.00;;;21.51;59.65
63395;BME280;49531;-34.520;150.798;2023-12-20T10:30:54;100761.84;;;21.53;59.51
63395;BME280;49531;-34.520;150.798;2023-12-20T10:33:28;100771.84;;;21.48;59.70
63395;BME280;49531;-34.520;150.798;2023-12-20T10:35:56;100769.13;;;21.43;59.79
63395;BME280;49531;-34.520;150.798;2023-12-20T10:38:23;100774.88;;;21.51;59.48
63395;BME280;49531;-34.520;150.798;2023-12-20T10:40:57;100761.84;;;21.53;59.37
63395;BME280;49531;-34.520;150.798;2023-12-20T10:43:28;100755.84;;;21.51;59.38
63395;BME280;49531;-34.520;150.798;2023-12-20T10:45:58;100754.50;;;21.54;59.26
63395;BME280;49531;-34.520;150.798;2023-12-20T10:48:25;100744.16;;;21.51;59.47
63395;BME280;49531;-34.520;150.798;2023-12-20T10:50:56;100748.75;;;21.45;59.48
63395;BME280;49531;-34.520;150.798;2023-12-20T10:53:25;100745.78;;;21.47;59.75
63395;BME280;49531;-34.520;150.798;2023-12-20T10:55:54;100743.59;;;21.44;59.67
63395;BME280;49531;-34.520;150.798;2023-12-20T10:58:25;100747.13;;;21.49;59.55
63395;BME280;49531;-34.520;150.798;2023-12-20T11:00:59;100747.94;;;21.45;59.65
63395;BME280;49531;-34.520;150.798;2023-12-20T11:03:32;100743.03;;;21.42;59.69
63395;BME280;49531;-34.520;150.798;2023-12-20T11:06:58;100743.59;;;21.44;59.67
63395;BME280;49531;-34.520;150.798;2023-12-20T11:11:42;100726.75;;;21.47;59.44
63395;BME280;49531;-34.520;150.798;2023-12-20T11:14:27;100729.44;;;21.42;59.67
63395;BME280;49531;-34.520;150.798;2023-12-20T11:17:11;100724.81;;;21.42;59.57
63395;BME280;49531;-34.520;150.798;2023-12-20T11:22:33;100720.78;;;21.50;59.45
63395;BME280;49531;-34.520;150.798;2023-12-20T11:25:09;100722.66;;;21.44;59.47
63395;BME280;49531;-34.520;150.798;2023-12-20T11:27:41;100712.84;;;21.38;59.67
63395;BME280;49531;-34.520;150.798;2023-12-20T11:30:09;100710.13;;;21.33;59.77
63395;BME280;49531;-34.520;150.798;2023-12-20T11:32:37;100713.94;;;21.37;59.50
63395;BME280;49531;-34.520;150.798;2023-12-20T11:37:38;100707.41;;;21.38;59.56
63395;BME280;49531;-34.520;150.798;2023-12-20T11:40:13;100705.50;;;21.34;59.75
63395;BME280;49531;-34.520;150.798;2023-12-20T11:42:50;100719.63;;;21.36;59.58
63395;BME280;49531;-34.520;150.798;2023-12-20T11:45:23;100713.13;;;21.37;59.55
63395;BME280;49531;-34.520;150.798;2023-12-20T11:47:51;100716.94;;;21.41;59.34
63395;BME280;49531;-34.520;150.798;2023-12-20T11:50:22;100708.22;;;21.39;59.49
63395;BME280;49531;-34.520;150.798;2023-12-20T11:52:51;100708.22;;;21.39;59.45
63395;BME280;49531;-34.520;150.798;2023-12-20T11:55:18;100700.63;;;21.36;59.56
63395;BME280;49531;-34.520;150.798;2023-12-20T11:57:46;100706.31;;;21.34;59.57
63395;BME280;49531;-34.520;150.798;2023-12-20T12:00:14;100701.41;;;21.31;59.64
63395;BME280;49531;-34.520;150.798;2023-12-20T12:02:42;100694.59;;;21.28;59.64
63395;BME280;49531;-34.520;150.798;2023-12-20T12:05:09;100703.59;;;21.34;59.46
63395;BME280;49531;-34.520;150.798;2023-12-20T12:07:36;100709.56;;;21.31;59.67
63395;BME280;49531;-34.520;150.798;2023-12-20T12:10:04;100697.31;;;21.28;59.69
63395;BME280;49531;-34.520;150.798;2023-12-20T12:12:31;100703.84;;;21.27;59.72
63395;BME280;49531;-34.520;150.798;2023-12-20T12:14:59;100697.88;;;21.30;59.70
63395;BME280;49531;-34.520;150.798;2023-12-20T12:17:26;100695.41;;;21.29;59.62
63395;BME280;49531;-34.520;150.798;2023-12-20T12:20:02;100701.13;;;21.27;59.60
63395;BME280;49531;-34.520;150.798;2023-12-20T12:22:30;100694.34;;;21.30;59.34
63395;BME280;49531;-34.520;150.798;2023-12-20T12:25:12;100704.38;;;21.24;59.85
63395;BME280;49531;-34.520;150.798;2023-12-20T12:27:43;100702.47;;;21.25;59.67
63395;BME280;49531;-34.520;150.798;2023-12-20T12:30:10;100710.09;;;21.28;59.73
63395;BME280;49531;-34.520;150.798;2023-12-20T12:32:39;100698.38;;;21.22;59.79
63395;BME280;49531;-34.520;150.798;2023-12-20T12:35:08;100693.75;;;21.23;59.84